createdAt,value
2019-03-13T06:01:28.745Z,16.40
2019-03-13T06:03:58.760Z,18.00
2019-03-13T06:06:31.717Z,22.20
2019-03-13T06:09:02.260Z,18.33
2019-03-13T06:11:34.365Z,18.00
2019-03-13T06:14:04.343Z,18.60
2019-03-13T06:16:33.007Z,18.50
2019-03-13T06:19:03.043Z,18.60
2019-03-13T06:21:33.078Z,16.33
2019-03-13T06:24:03.234Z,61.83
2019-03-13T06:26:31.854Z,21.43
2019-03-13T06:29:02.611Z,19.03
2019-03-13T06:31:31.205Z,19.80
2019-03-13T06:34:00.106Z,20.27
2019-03-13T06:36:28.732Z,20.80
2019-03-13T06:38:57.356Z,19.10
2019-03-13T06:41:25.990Z,20.67
2019-03-13T06:43:54.540Z,20.97
2019-03-13T06:46:26.073Z,20.00
2019-03-13T06:48:57.125Z,21.33
2019-03-13T06:51:25.767Z,30.07
2019-03-13T06:53:54.325Z,18.90
2019-03-13T06:56:22.982Z,21.73
2019-03-13T06:58:56.246Z,22.87
2019-03-13T07:01:34.867Z,25.07
2019-03-13T07:04:17.343Z,27.03
2019-03-13T07:06:49.081Z,24.50
2019-03-13T07:09:19.339Z,25.50
2019-03-13T07:11:53.974Z,27.20
2019-03-13T07:14:26.987Z,26.77
2019-03-13T07:17:12.598Z,28.07
2019-03-13T07:19:54.641Z,28.30
2019-03-13T07:22:24.784Z,24.87
2019-03-13T07:28:02.222Z,27.33
2019-03-13T07:30:40.750Z,28.30
2019-03-13T07:33:27.476Z,29.77
2019-03-13T07:36:06.209Z,29.40
2019-03-13T07:38:46.956Z,29.17
2019-03-13T07:41:22.907Z,29.70
2019-03-13T07:44:02.475Z,30.50
2019-03-13T07:46:38.497Z,25.70
2019-03-13T07:49:09.395Z,31.23
2019-03-13T07:51:58.739Z,32.17
2019-03-13T07:54:50.898Z,29.13
2019-03-13T07:57:21.425Z,25.63
2019-03-13T07:59:54.577Z,27.90
2019-03-13T08:02:24.845Z,27.30
2019-03-13T08:04:55.112Z,28.03
2019-03-13T08:07:35.593Z,24.63
2019-03-13T08:10:08.420Z,35.77
2019-03-13T08:12:41.402Z,27.67
2019-03-13T08:15:29.379Z,24.00
2019-03-13T08:18:18.758Z,29.93
2019-03-13T08:20:51.743Z,26.37
2019-03-13T08:23:33.432Z,35.23
2019-03-13T08:26:06.437Z,33.60
2019-03-13T08:28:40.992Z,26.60
2019-03-13T08:31:20.214Z,25.93
2019-03-13T08:33:52.462Z,21.93
2019-03-13T08:36:29.778Z,28.70
2019-03-13T08:39:05.380Z,24.17
2019-03-13T08:41:47.818Z,22.00
2019-03-13T08:44:20.873Z,23.43
2019-03-13T08:46:52.615Z,24.17
2019-03-13T08:49:33.179Z,23.90
2019-03-13T08:52:07.889Z,21.90
2019-03-13T08:54:38.171Z,23.50
2019-03-13T08:57:10.939Z,23.67
2019-03-13T08:59:56.391Z,24.57
2019-03-13T09:02:42.807Z,22.27
2019-03-13T09:05:13.178Z,21.83
2019-03-13T09:08:00.930Z,22.50
2019-03-13T09:10:31.210Z,21.03
2019-03-13T09:13:12.922Z,19.27
2019-03-13T09:15:51.469Z,23.20
2019-03-13T09:18:27.399Z,19.20
2019-03-13T09:21:06.727Z,24.50
2019-03-13T09:23:39.833Z,26.20
2019-03-13T09:26:19.037Z,20.60
2019-03-13T09:28:58.266Z,21.90
2019-03-13T09:31:45.152Z,19.57
2019-03-13T09:34:30.590Z,19.80
2019-03-13T09:37:17.072Z,19.17
2019-03-13T09:40:05.179Z,22.80
2019-03-13T09:42:39.613Z,23.10
2019-03-13T09:45:17.800Z,23.93
2019-03-13T09:47:51.081Z,26.40
2019-03-13T09:50:24.062Z,26.60
2019-03-13T09:52:57.320Z,26.10
2019-03-13T09:55:27.596Z,28.97
2019-03-13T09:58:09.842Z,27.07
2019-03-13T10:00:55.397Z,27.77
2019-03-13T10:03:34.901Z,28.80
2019-03-13T10:06:08.336Z,26.13
2019-03-13T10:08:41.019Z,29.00
2019-03-13T10:11:11.272Z,26.17
2019-03-13T10:13:52.602Z,25.63
2019-03-13T10:16:25.468Z,26.73
2019-03-13T10:19:01.413Z,26.63
2019-03-13T10:21:44.855Z,25.27
2019-03-13T10:24:06.726Z,25.70
2019-03-13T10:26:39.738Z,23.87
2019-03-13T10:29:12.743Z,25.67
2019-03-13T10:31:46.650Z,24.33
2019-03-13T10:34:19.499Z,25.80
2019-03-13T10:36:58.512Z,24.30
2019-03-13T10:39:46.479Z,26.17
2019-03-13T10:42:16.623Z,24.23
2019-03-13T10:44:49.817Z,23.17
2019-03-13T10:47:20.111Z,25.23
2019-03-13T10:49:51.817Z,31.67
2019-03-13T10:52:22.053Z,31.20
2019-03-13T10:55:10.926Z,33.97
2019-03-13T10:57:57.638Z,35.90
2019-03-13T11:00:30.648Z,31.70
2019-03-13T11:03:09.873Z,35.77
2019-03-13T11:05:49.184Z,50.30
2019-03-13T11:08:36.052Z,46.80
2019-03-13T11:11:13.090Z,43.70
2019-03-13T11:13:52.606Z,42.60
2019-03-13T11:16:22.888Z,43.17
2019-03-13T11:18:53.194Z,38.77
2019-03-13T11:21:26.241Z,42.37
2019-03-13T11:24:00.847Z,36.43
2019-03-13T11:26:33.949Z,35.53
2019-03-13T11:29:13.458Z,38.80
2019-03-13T11:31:45.882Z,34.70
2019-03-13T11:34:32.168Z,35.27
2019-03-13T11:37:20.820Z,35.07
2019-03-13T11:39:55.302Z,35.23
2019-03-13T11:42:25.560Z,32.97
2019-03-13T11:45:02.975Z,34.30
2019-03-13T11:47:42.195Z,31.77
2019-03-13T11:50:12.509Z,32.60
2019-03-13T11:53:03.028Z,31.97
2019-03-13T11:55:33.997Z,30.30
2019-03-13T11:58:07.485Z,33.83
2019-03-13T12:00:50.153Z,30.00
2019-03-13T12:03:23.441Z,29.87
2019-03-13T12:05:56.830Z,28.23
2019-03-13T12:08:33.337Z,29.23
2019-03-13T12:11:18.939Z,26.50
2019-03-13T12:14:05.752Z,27.70
2019-03-13T12:16:42.228Z,25.97
2019-03-13T12:19:15.740Z,27.53
2019-03-13T12:21:55.116Z,28.03
2019-03-13T12:24:34.420Z,27.50
2019-03-13T12:27:20.237Z,24.70
2019-03-13T12:29:50.549Z,22.90
2019-03-13T12:32:24.082Z,24.50
2019-03-13T12:34:57.168Z,22.40
2019-03-13T12:37:42.480Z,20.80
2019-03-13T12:40:14.370Z,19.93
2019-03-13T12:43:00.857Z,23.20
2019-03-13T12:45:47.646Z,20.57
2019-03-13T12:48:30.478Z,19.93
2019-03-13T12:51:16.065Z,21.03
2019-03-13T12:53:46.390Z,12.87
2019-03-13T12:56:16.705Z,9.67
2019-03-13T12:58:47.067Z,9.07
2019-03-13T13:01:17.937Z,7.33
2019-03-13T13:03:50.884Z,5.43
2019-03-13T13:06:27.197Z,5.03
2019-03-13T13:08:57.452Z,4.03
2019-03-13T13:11:33.720Z,4.70
2019-03-13T13:14:04.013Z,4.10
2019-03-13T13:16:40.178Z,5.20
2019-03-13T13:19:08.883Z,3.73
2019-03-13T13:21:37.643Z,3.30
2019-03-13T13:24:06.583Z,5.23
2019-03-13T13:26:35.311Z,7.47
2019-03-13T13:29:04.021Z,3.93
2019-03-13T13:31:32.696Z,4.40
2019-03-13T13:34:01.331Z,3.50
2019-03-13T13:36:30.196Z,3.70
2019-03-13T13:38:58.889Z,3.70
2019-03-13T13:41:30.619Z,4.40
2019-03-13T13:43:59.355Z,4.20
2019-03-13T13:46:28.283Z,5.50
2019-03-13T13:48:57.047Z,6.63
2019-03-13T13:51:25.799Z,4.30
2019-03-13T13:53:55.961Z,5.30
2019-03-13T13:56:24.841Z,5.33
2019-03-13T13:58:53.557Z,4.00
2019-03-13T14:01:22.219Z,3.30
2019-03-13T14:03:50.853Z,3.50
2019-03-13T14:06:19.594Z,5.13
2019-03-13T14:08:48.208Z,3.90
2019-03-13T14:11:16.828Z,3.50
2019-03-13T14:13:45.491Z,4.90
2019-03-13T14:16:14.226Z,5.00
2019-03-13T14:18:42.930Z,5.37
2019-03-13T14:21:11.607Z,9.60
2019-03-13T14:23:40.371Z,5.10
2019-03-13T14:26:09.145Z,4.58
2019-03-13T14:28:37.875Z,4.73
2019-03-13T14:31:06.834Z,5.13
2019-03-13T14:33:37.176Z,4.23
2019-03-13T14:36:05.934Z,4.50
2019-03-13T14:38:34.658Z,10.65
2019-03-13T14:41:03.328Z,9.30
2019-03-13T14:43:31.962Z,5.50
2019-03-13T14:46:00.739Z,6.60
2019-03-13T14:48:29.387Z,7.17
2019-03-13T14:50:58.132Z,9.47
2019-03-13T14:53:26.770Z,7.53
2019-03-13T14:55:55.929Z,6.97
2019-03-13T14:58:24.725Z,9.57
2019-03-13T15:00:53.443Z,10.80
2019-03-13T15:03:22.126Z,10.13
2019-03-13T15:05:50.827Z,10.20
2019-03-13T15:08:19.495Z,10.50
2019-03-13T15:10:48.161Z,11.63
2019-03-13T15:13:16.799Z,11.77
2019-03-13T15:15:45.455Z,11.03
2019-03-13T15:18:14.184Z,12.70
2019-03-13T15:20:43.015Z,8.30
2019-03-13T15:23:11.640Z,9.07
2019-03-13T15:25:40.504Z,8.43
2019-03-13T15:28:09.174Z,9.60
2019-03-13T15:30:37.893Z,9.33
2019-03-13T15:33:06.629Z,10.33
2019-03-13T15:35:35.327Z,11.00
2019-03-13T15:38:03.988Z,9.67
2019-03-13T15:40:32.719Z,15.23
2019-03-13T15:43:01.428Z,11.93
2019-03-13T15:45:33.133Z,12.80
2019-03-13T15:48:01.807Z,11.03
2019-03-13T15:50:30.466Z,11.73
2019-03-13T15:52:59.179Z,12.53
2019-03-13T15:55:27.897Z,10.97
2019-03-13T15:57:56.642Z,10.90
2019-03-13T16:00:29.519Z,11.80
2019-03-13T16:02:58.295Z,13.70
2019-03-13T16:05:27.004Z,11.13
2019-03-13T16:07:55.698Z,14.23
2019-03-13T16:10:24.377Z,11.60
2019-03-13T16:12:54.748Z,11.50
2019-03-13T16:15:36.951Z,12.37
2019-03-13T16:18:05.779Z,11.23
2019-03-13T16:20:34.446Z,11.20
2019-03-13T16:23:03.461Z,11.80
2019-03-13T16:25:32.510Z,13.03
2019-03-13T16:28:01.153Z,11.17
2019-03-13T16:30:31.741Z,11.33
2019-03-13T16:33:00.388Z,11.63
2019-03-13T16:35:29.145Z,11.57
2019-03-13T16:37:57.878Z,12.13
2019-03-13T16:40:26.629Z,12.60
2019-03-13T16:42:55.289Z,11.83
2019-03-13T16:45:24.194Z,11.93
2019-03-13T16:47:52.818Z,13.20
2019-03-13T16:50:32.233Z,12.90
2019-03-13T16:53:00.955Z,11.83
2019-03-13T16:55:29.583Z,12.83
2019-03-13T16:57:58.407Z,12.90
2019-03-13T17:00:28.233Z,12.77
2019-03-13T17:02:57.466Z,14.30
2019-03-13T17:05:26.302Z,11.90
2019-03-13T17:07:55.009Z,11.83
2019-03-13T17:10:26.551Z,10.97
2019-03-13T17:12:55.383Z,9.83
2019-03-13T17:15:27.323Z,13.20
2019-03-13T17:17:56.169Z,14.70
2019-03-13T17:20:27.419Z,20.20
2019-03-13T17:22:56.209Z,15.07
2019-03-13T17:25:25.020Z,21.23
2019-03-13T17:27:53.661Z,24.63
2019-03-13T17:30:30.192Z,18.80
2019-03-13T17:32:59.115Z,29.00
2019-03-13T17:35:27.777Z,18.47
2019-03-13T17:37:56.774Z,25.83
2019-03-13T17:40:27.460Z,18.17
2019-03-13T17:42:56.304Z,22.30
2019-03-13T17:45:25.341Z,22.33
2019-03-13T17:47:54.391Z,20.47
2019-03-13T17:50:24.222Z,22.23
2019-03-13T17:52:52.961Z,20.33
2019-03-13T17:55:25.575Z,16.87
2019-03-13T17:57:54.308Z,24.43
2019-03-13T18:00:47.542Z,17.53
2019-03-13T18:03:16.223Z,16.17
2019-03-13T18:05:45.074Z,14.27
2019-03-13T18:08:13.694Z,10.30
2019-03-13T18:10:42.323Z,10.33
2019-03-13T18:13:10.980Z,14.60
2019-03-13T18:15:39.689Z,13.00
2019-03-13T18:18:08.311Z,8.00
2019-03-13T18:20:37.134Z,8.53
2019-03-13T18:23:06.058Z,9.87
2019-03-13T18:25:34.756Z,8.27
2019-03-13T18:28:03.381Z,8.20
2019-03-13T18:30:34.219Z,8.70
2019-03-13T18:33:02.845Z,9.70
2019-03-13T18:35:31.467Z,9.23
2019-03-13T18:38:00.095Z,7.37
2019-03-13T18:40:28.775Z,8.60
2019-03-13T18:42:57.421Z,14.47
2019-03-13T18:45:30.868Z,6.83
2019-03-13T18:47:59.887Z,6.80
2019-03-13T18:50:28.505Z,6.00
2019-03-13T18:52:57.170Z,6.23
2019-03-13T18:55:30.368Z,7.07
2019-03-13T18:57:59.101Z,7.03
2019-03-13T19:00:33.300Z,7.87
2019-03-13T19:03:02.242Z,6.30
2019-03-13T19:05:32.684Z,6.00
2019-03-13T19:08:01.331Z,12.33
2019-03-13T19:10:31.675Z,7.50
2019-03-13T19:13:00.372Z,10.93
2019-03-13T19:15:30.408Z,10.53
2019-03-13T19:18:00.844Z,6.67
2019-03-13T19:20:32.486Z,7.63
2019-03-13T19:23:01.154Z,7.50
2019-03-13T19:25:29.830Z,6.50
2019-03-13T19:27:58.463Z,6.03
2019-03-13T19:30:29.741Z,6.00
2019-03-13T19:32:58.512Z,6.13
2019-03-13T19:35:27.255Z,7.23
2019-03-13T19:37:58.176Z,70.60
2019-03-13T19:40:26.795Z,9.37
2019-03-13T19:42:55.658Z,7.93
2019-03-13T19:45:29.706Z,6.40
2019-03-13T19:48:01.152Z,5.97
2019-03-13T19:50:28.746Z,6.87
2019-03-13T19:52:57.363Z,5.90
2019-03-13T19:55:26.142Z,5.77
2019-03-13T19:57:54.800Z,5.73
2019-03-13T20:00:26.013Z,6.20
2019-03-13T20:03:03.048Z,7.37
2019-03-13T20:05:44.268Z,9.23
2019-03-13T20:08:02.220Z,10.00
2019-03-13T20:10:31.424Z,8.80
2019-03-13T20:13:00.173Z,9.87
2019-03-13T20:15:32.778Z,9.47
2019-03-13T20:18:01.463Z,11.27
2019-03-13T20:20:30.150Z,10.47
2019-03-13T20:23:10.580Z,9.53
2019-03-13T20:25:39.258Z,9.63
2019-03-13T20:28:08.335Z,10.87
2019-03-13T20:30:37.116Z,12.40
2019-03-13T20:33:05.854Z,12.67
2019-03-13T20:35:36.788Z,11.70
2019-03-13T20:38:05.022Z,14.07
2019-03-13T20:40:33.700Z,13.23
2019-03-13T20:43:02.953Z,14.60
2019-03-13T20:45:32.028Z,16.10
2019-03-13T20:48:00.802Z,15.40
2019-03-13T20:50:36.534Z,15.40
2019-03-13T20:52:59.794Z,15.20
2019-03-13T20:55:28.453Z,15.40
2019-03-13T20:57:57.163Z,17.93
2019-03-13T21:00:27.017Z,19.00
2019-03-13T21:02:56.750Z,17.40
2019-03-13T21:05:25.790Z,17.17
2019-03-13T21:07:54.920Z,18.10
2019-03-13T21:10:23.750Z,17.93
2019-03-13T21:12:52.388Z,20.87
2019-03-13T21:15:25.363Z,19.93
2019-03-13T21:17:54.300Z,21.30
2019-03-13T21:20:23.250Z,20.00
2019-03-13T21:22:51.889Z,19.03
2019-03-13T21:25:23.851Z,19.17
2019-03-13T21:27:52.488Z,18.83
2019-03-13T21:30:26.278Z,19.07
2019-03-13T21:32:55.023Z,18.33
2019-03-13T21:35:23.765Z,18.23
2019-03-13T21:37:52.522Z,17.77
2019-03-13T21:40:23.143Z,17.87
2019-03-13T21:42:54.461Z,17.50
2019-03-13T21:45:23.235Z,18.77
2019-03-13T21:47:52.121Z,18.43
2019-03-13T21:50:21.363Z,19.27
2019-03-13T21:52:49.985Z,20.00
2019-03-13T21:55:19.283Z,22.40
2019-03-13T21:57:51.581Z,23.20
2019-03-13T22:00:28.710Z,22.23
2019-03-13T22:02:57.329Z,25.17
2019-03-13T22:05:27.248Z,25.20
2019-03-13T22:07:56.340Z,26.97
2019-03-13T22:10:25.044Z,27.57
2019-03-13T22:12:53.861Z,29.20
2019-03-13T22:15:23.463Z,28.30
2019-03-13T22:17:52.196Z,31.80
2019-03-13T22:20:21.325Z,32.03
2019-03-13T22:22:49.980Z,37.60
2019-03-13T22:25:19.697Z,36.33
2019-03-13T22:27:48.373Z,37.03
2019-03-13T22:30:21.510Z,39.00
2019-03-13T22:32:50.313Z,43.30
2019-03-13T22:35:19.057Z,47.60
2019-03-13T22:37:47.692Z,55.00
2019-03-13T22:40:17.311Z,51.50
2019-03-13T22:42:45.943Z,54.43
2019-03-13T22:45:16.171Z,57.97
2019-03-13T22:47:44.834Z,62.40
2019-03-13T22:50:18.362Z,63.40
2019-03-13T22:52:46.988Z,70.80
2019-03-13T22:55:15.812Z,73.30
2019-03-13T22:57:44.449Z,75.93
2019-03-13T23:00:41.763Z,81.77
2019-03-13T23:03:10.808Z,91.83
2019-03-13T23:05:39.480Z,90.97
2019-03-13T23:08:08.103Z,90.53
2019-03-13T23:10:36.732Z,92.63
2019-03-13T23:13:05.467Z,89.60
2019-03-13T23:15:34.114Z,102.73
2019-03-13T23:18:02.738Z,96.07
2019-03-13T23:20:31.364Z,99.10
2019-03-13T23:22:59.996Z,99.50
2019-03-13T23:25:28.628Z,98.40
2019-03-13T23:27:57.268Z,99.60
2019-03-13T23:30:25.928Z,101.33
2019-03-13T23:32:54.542Z,96.73
2019-03-13T23:35:23.173Z,104.03
2019-03-13T23:37:51.832Z,97.13
2019-03-13T23:40:20.463Z,104.67
2019-03-13T23:42:49.043Z,99.80
2019-03-13T23:45:17.779Z,100.17
2019-03-13T23:47:46.489Z,98.10
2019-03-13T23:50:15.440Z,99.93
2019-03-13T23:52:44.073Z,90.03
2019-03-13T23:55:12.733Z,97.80
2019-03-13T23:57:41.384Z,95.80
